JST645 NFFN-YMML
Flight info
| Callsign | JST645 |
|---|---|
| Flight time | 5h 10m |
| Altitude | 36000 |
| Route | TEPEK A579 VIRAR/N0456F380 A579 UPSAD DCT WARTY DCT RIKNI DCT TANTA Q29 LUVAS DCT LIZZI |
| Aircraft | A20N/M-SDE2E3FGHIRWXY/LB1 |
Departure
| Time | 2026-04-30 01:48 |
|---|---|
| Airport | Nadi International Airport (NFFN) |
Arrival
| Time | 2026-04-30 06:59 |
|---|---|
| Airport | Melbourne Airport (YMML) |
| Time | Latitude | Longitude | Altitude | Speed | Heading |
|---|---|---|---|---|---|
| 2026-04-30 01:29 | -17.75159 | 177.45064 | 53 ft | 0 kts | 192° |
| 2026-04-30 01:39 | -17.75156 | 177.45065 | 49 ft | 2 kts | 192° |
| 2026-04-30 01:39 | -17.75140 | 177.45070 | 52 ft | 2 kts | 198° |
| 2026-04-30 01:39 | -17.75124 | 177.45076 | 51 ft | 2 kts | 206° |
| 2026-04-30 01:40 | -17.75110 | 177.45085 | 47 ft | 2 kts | 220° |
| 2026-04-30 01:40 | -17.75099 | 177.45098 | 48 ft | 2 kts | 247° |
| 2026-04-30 01:40 | -17.75096 | 177.45115 | 48 ft | 2 kts | 275° |
| 2026-04-30 01:40 | -17.75097 | 177.45126 | 48 ft | 1 kts | 285° |
| 2026-04-30 01:41 | -17.75097 | 177.45127 | 48 ft | 0 kts | 285° |
| 2026-04-30 01:43 | -17.75097 | 177.45126 | 48 ft | 1 kts | 285° |
| 2026-04-30 01:43 | -17.75089 | 177.45097 | 47 ft | 7 kts | 285° |
| 2026-04-30 01:43 | -17.75072 | 177.45023 | 50 ft | 14 kts | 283° |
| 2026-04-30 01:44 | -17.75036 | 177.44891 | 51 ft | 23 kts | 285° |
| 2026-04-30 01:44 | -17.75043 | 177.44721 | 50 ft | 25 kts | 230° |
| 2026-04-30 01:44 | -17.75230 | 177.44566 | 47 ft | 41 kts | 219° |
| 2026-04-30 01:44 | -17.75451 | 177.44382 | 43 ft | 40 kts | 217° |
| 2026-04-30 01:45 | -17.75672 | 177.44213 | 48 ft | 38 kts | 217° |
| 2026-04-30 01:45 | -17.75887 | 177.44034 | 48 ft | 43 kts | 216° |
| 2026-04-30 01:45 | -17.76153 | 177.43825 | 46 ft | 52 kts | 217° |
| 2026-04-30 01:45 | -17.76455 | 177.43588 | 45 ft | 55 kts | 216° |
| 2026-04-30 01:46 | -17.76748 | 177.43348 | 45 ft | 52 kts | 218° |
| 2026-04-30 01:46 | -17.76981 | 177.43163 | 42 ft | 40 kts | 219° |
| 2026-04-30 01:46 | -17.77197 | 177.42984 | 40 ft | 34 kts | 216° |
| 2026-04-30 01:46 | -17.77321 | 177.42874 | 39 ft | 16 kts | 257° |
| 2026-04-30 01:47 | -17.77305 | 177.42852 | 40 ft | 1 kts | 30° |
| 2026-04-30 01:47 | -17.77299 | 177.42878 | 39 ft | 8 kts | 71° |
| 2026-04-30 01:47 | -17.77257 | 177.42925 | 39 ft | 10 kts | 36° |
| 2026-04-30 01:47 | -17.77169 | 177.42995 | 41 ft | 35 kts | 36° |
| 2026-04-30 01:48 | -17.76781 | 177.43307 | 45 ft | 102 kts | 38° |
| 2026-04-30 01:48 | -17.76071 | 177.43882 | 47 ft | 153 kts | 37° |
| 2026-04-30 01:48 | -17.75136 | 177.44603 | 390 ft | 165 kts | 25° |
| 2026-04-30 01:48 | -17.74057 | 177.44864 | 1030 ft | 165 kts | 350° |
| 2026-04-30 01:49 | -17.73007 | 177.44278 | 1369 ft | 181 kts | 307° |
| 2026-04-30 01:49 | -17.72586 | 177.43058 | 1917 ft | 185 kts | 267° |
| 2026-04-30 01:49 | -17.72986 | 177.41733 | 2400 ft | 202 kts | 230° |
| 2026-04-30 01:49 | -17.74123 | 177.40801 | 2895 ft | 219 kts | 201° |
| 2026-04-30 01:50 | -17.75658 | 177.40239 | 3136 ft | 249 kts | 197° |
| 2026-04-30 01:50 | -17.77307 | 177.39446 | 3532 ft | 271 kts | 210° |
| 2026-04-30 01:50 | -17.78828 | 177.38216 | 4200 ft | 280 kts | 221° |
| 2026-04-30 01:50 | -17.80161 | 177.36730 | 5043 ft | 281 kts | 228° |
| 2026-04-30 01:51 | -17.81388 | 177.35130 | 5834 ft | 282 kts | 231° |
| 2026-04-30 01:51 | -17.82574 | 177.33467 | 6506 ft | 288 kts | 232° |
| 2026-04-30 01:51 | -17.83759 | 177.31762 | 7174 ft | 289 kts | 232° |
| 2026-04-30 01:51 | -17.84929 | 177.30076 | 7899 ft | 290 kts | 232° |
| 2026-04-30 01:52 | -17.86124 | 177.28366 | 8622 ft | 291 kts | 232° |
| 2026-04-30 01:52 | -17.87330 | 177.26649 | 9358 ft | 293 kts | 232° |
| 2026-04-30 01:52 | -17.88544 | 177.24925 | 10042 ft | 294 kts | 232° |
| 2026-04-30 01:52 | -17.89792 | 177.23159 | 10365 ft | 311 kts | 232° |
| 2026-04-30 01:53 | -17.91120 | 177.21281 | 10538 ft | 330 kts | 232° |
| 2026-04-30 01:53 | -17.92525 | 177.19291 | 10781 ft | 345 kts | 232° |
| 2026-04-30 01:53 | -17.93963 | 177.17251 | 11379 ft | 348 kts | 232° |
| 2026-04-30 01:53 | -17.95411 | 177.15195 | 11982 ft | 351 kts | 232° |
| 2026-04-30 01:54 | -17.96852 | 177.13148 | 12568 ft | 354 kts | 232° |
| 2026-04-30 01:54 | -17.98320 | 177.11063 | 13155 ft | 357 kts | 232° |
| 2026-04-30 01:54 | -17.99803 | 177.08957 | 13764 ft | 360 kts | 233° |
| 2026-04-30 01:54 | -18.01298 | 177.06834 | 14273 ft | 363 kts | 233° |
| 2026-04-30 01:55 | -18.02801 | 177.04700 | 14801 ft | 365 kts | 233° |
| 2026-04-30 01:55 | -18.04318 | 177.02548 | 15317 ft | 367 kts | 233° |
| 2026-04-30 01:55 | -18.05845 | 177.00379 | 15824 ft | 370 kts | 233° |
| 2026-04-30 01:55 | -18.07383 | 176.98193 | 16320 ft | 373 kts | 234° |
| 2026-04-30 01:56 | -18.08934 | 176.95989 | 16814 ft | 375 kts | 234° |
| 2026-04-30 01:56 | -18.10471 | 176.93803 | 17297 ft | 378 kts | 234° |
| 2026-04-30 01:56 | -18.12039 | 176.91570 | 17787 ft | 381 kts | 234° |
| 2026-04-30 01:56 | -18.13618 | 176.89322 | 18240 ft | 383 kts | 234° |
| 2026-04-30 01:57 | -18.15203 | 176.87064 | 18695 ft | 384 kts | 235° |
| 2026-04-30 01:57 | -18.16793 | 176.84800 | 19154 ft | 385 kts | 235° |
| 2026-04-30 01:57 | -18.18387 | 176.82525 | 19569 ft | 387 kts | 235° |
| 2026-04-30 01:57 | -18.19989 | 176.80240 | 19990 ft | 389 kts | 235° |
| 2026-04-30 01:58 | -18.21599 | 176.77942 | 20410 ft | 391 kts | 235° |
| 2026-04-30 01:58 | -18.23220 | 176.75629 | 20835 ft | 393 kts | 235° |
| 2026-04-30 01:58 | -18.24845 | 176.73307 | 21238 ft | 395 kts | 235° |
| 2026-04-30 01:58 | -18.26482 | 176.70970 | 21640 ft | 397 kts | 235° |
| 2026-04-30 01:59 | -18.29770 | 176.66270 | 22475 ft | 400 kts | 236° |
| 2026-04-30 01:59 | -18.31425 | 176.63904 | 22894 ft | 402 kts | 236° |
| 2026-04-30 01:59 | -18.33086 | 176.61527 | 23291 ft | 404 kts | 236° |
| 2026-04-30 02:00 | -18.34753 | 176.59141 | 23663 ft | 405 kts | 236° |
| 2026-04-30 02:00 | -18.36428 | 176.56743 | 23982 ft | 408 kts | 236° |
| 2026-04-30 02:00 | -18.38110 | 176.54334 | 24303 ft | 409 kts | 236° |
| 2026-04-30 02:00 | -18.39798 | 176.51914 | 24619 ft | 411 kts | 236° |
| 2026-04-30 02:01 | -18.41497 | 176.49480 | 24930 ft | 413 kts | 236° |
| 2026-04-30 02:01 | -18.43199 | 176.47038 | 25235 ft | 414 kts | 236° |
| 2026-04-30 02:01 | -18.44888 | 176.44615 | 25539 ft | 416 kts | 236° |
| 2026-04-30 02:01 | -18.46603 | 176.42154 | 25830 ft | 418 kts | 237° |
| 2026-04-30 02:02 | -18.48326 | 176.39681 | 26123 ft | 419 kts | 237° |
| 2026-04-30 02:02 | -18.50056 | 176.37197 | 26404 ft | 421 kts | 237° |
| 2026-04-30 02:02 | -18.51796 | 176.34696 | 26693 ft | 423 kts | 237° |
| 2026-04-30 02:02 | -18.53541 | 176.32189 | 26955 ft | 425 kts | 237° |
| 2026-04-30 02:03 | -18.55272 | 176.29698 | 27215 ft | 426 kts | 237° |
| 2026-04-30 02:03 | -18.57029 | 176.27171 | 27488 ft | 428 kts | 237° |
| 2026-04-30 02:03 | -18.58792 | 176.24635 | 27745 ft | 429 kts | 237° |
| 2026-04-30 02:03 | -18.60564 | 176.22084 | 27999 ft | 431 kts | 237° |
| 2026-04-30 02:04 | -18.62339 | 176.19528 | 28247 ft | 433 kts | 237° |
| 2026-04-30 02:04 | -18.64119 | 176.16963 | 28502 ft | 434 kts | 237° |
| 2026-04-30 02:04 | -18.65905 | 176.14389 | 28735 ft | 436 kts | 237° |
| 2026-04-30 02:04 | -18.67701 | 176.11799 | 28972 ft | 437 kts | 237° |
| 2026-04-30 02:05 | -18.69499 | 176.09205 | 29197 ft | 439 kts | 238° |
| 2026-04-30 02:05 | -18.71303 | 176.06603 | 29427 ft | 440 kts | 238° |
| 2026-04-30 02:05 | -18.73156 | 176.04075 | 29635 ft | 444 kts | 234° |
| 2026-04-30 02:05 | -18.75132 | 176.01567 | 29856 ft | 445 kts | 234° |
| 2026-04-30 02:06 | -18.77114 | 175.99048 | 30082 ft | 446 kts | 234° |
| 2026-04-30 02:06 | -18.79098 | 175.96524 | 30289 ft | 447 kts | 234° |
| 2026-04-30 02:06 | -18.81086 | 175.93990 | 30513 ft | 448 kts | 234° |
| 2026-04-30 02:06 | -18.83072 | 175.91457 | 30729 ft | 448 kts | 234° |
| 2026-04-30 02:07 | -18.85065 | 175.88914 | 30945 ft | 449 kts | 234° |
| 2026-04-30 02:07 | -18.87055 | 175.86373 | 31195 ft | 449 kts | 234° |
| 2026-04-30 02:07 | -18.89045 | 175.83832 | 31474 ft | 448 kts | 234° |
| 2026-04-30 02:07 | -18.91033 | 175.81293 | 31771 ft | 447 kts | 234° |
| 2026-04-30 02:08 | -18.93008 | 175.78769 | 32044 ft | 446 kts | 234° |
| 2026-04-30 02:08 | -18.94316 | 175.77096 | 32228 ft | 445 kts | 234° |
| 2026-04-30 02:08 | -18.96289 | 175.74572 | 32494 ft | 444 kts | 234° |
| 2026-04-30 02:08 | -18.98254 | 175.72056 | 32755 ft | 443 kts | 235° |
| 2026-04-30 02:09 | -19.00211 | 175.69551 | 33011 ft | 442 kts | 235° |
| 2026-04-30 02:09 | -19.02166 | 175.67047 | 33266 ft | 441 kts | 235° |
| 2026-04-30 02:09 | -19.04115 | 175.64549 | 33490 ft | 440 kts | 235° |
| 2026-04-30 02:09 | -19.06060 | 175.62055 | 33733 ft | 439 kts | 235° |
| 2026-04-30 02:10 | -19.08000 | 175.59568 | 33955 ft | 438 kts | 235° |
| 2026-04-30 02:10 | -19.09934 | 175.57087 | 34156 ft | 437 kts | 235° |
| 2026-04-30 02:10 | -19.11864 | 175.54610 | 34348 ft | 436 kts | 235° |
| 2026-04-30 02:10 | -19.13790 | 175.52138 | 34536 ft | 435 kts | 235° |
| 2026-04-30 02:11 | -19.15711 | 175.49670 | 34727 ft | 433 kts | 235° |
| 2026-04-30 02:11 | -19.17624 | 175.47211 | 34896 ft | 433 kts | 236° |
| 2026-04-30 02:11 | -19.19511 | 175.44786 | 34990 ft | 432 kts | 236° |
| 2026-04-30 02:12 | -19.23321 | 175.39885 | 34997 ft | 430 kts | 236° |
| 2026-04-30 02:12 | -19.27123 | 175.34991 | 35001 ft | 431 kts | 236° |
| 2026-04-30 02:13 | -19.30927 | 175.30085 | 34999 ft | 430 kts | 236° |
| 2026-04-30 02:13 | -19.34724 | 175.25188 | 34999 ft | 430 kts | 236° |
| 2026-04-30 02:14 | -19.38523 | 175.20288 | 35002 ft | 430 kts | 236° |
| 2026-04-30 02:14 | -19.42322 | 175.15385 | 35007 ft | 430 kts | 236° |
| 2026-04-30 02:15 | -19.46090 | 175.10518 | 35001 ft | 429 kts | 236° |
| 2026-04-30 02:15 | -19.49883 | 175.05612 | 35006 ft | 429 kts | 236° |
| 2026-04-30 02:16 | -19.53664 | 175.00717 | 35007 ft | 429 kts | 236° |
| 2026-04-30 02:16 | -19.57448 | 174.95815 | 35007 ft | 429 kts | 236° |
| 2026-04-30 02:17 | -19.61225 | 174.90918 | 35010 ft | 429 kts | 236° |
| 2026-04-30 02:17 | -19.65006 | 174.86012 | 35011 ft | 429 kts | 236° |
| 2026-04-30 02:18 | -19.68780 | 174.81111 | 35010 ft | 429 kts | 236° |
| 2026-04-30 02:18 | -19.72552 | 174.76209 | 35011 ft | 429 kts | 236° |
| 2026-04-30 02:19 | -19.76324 | 174.71302 | 35014 ft | 428 kts | 236° |
| 2026-04-30 02:19 | -19.80092 | 174.66396 | 35012 ft | 428 kts | 236° |
| 2026-04-30 02:20 | -19.83832 | 174.61524 | 35012 ft | 428 kts | 236° |
| 2026-04-30 02:20 | -19.87591 | 174.56622 | 35013 ft | 428 kts | 236° |
| 2026-04-30 02:21 | -19.91355 | 174.51710 | 35019 ft | 429 kts | 236° |
| 2026-04-30 02:21 | -19.95128 | 174.46780 | 35020 ft | 429 kts | 236° |
| 2026-04-30 02:22 | -19.98895 | 174.41857 | 35015 ft | 429 kts | 236° |
| 2026-04-30 02:22 | -20.02661 | 174.36929 | 35018 ft | 429 kts | 237° |
| 2026-04-30 02:23 | -20.06431 | 174.31993 | 35017 ft | 430 kts | 237° |
| 2026-04-30 02:23 | -20.10197 | 174.27057 | 35017 ft | 430 kts | 237° |
| 2026-04-30 02:24 | -20.13942 | 174.22145 | 35026 ft | 430 kts | 237° |
| 2026-04-30 02:24 | -20.17713 | 174.17194 | 35020 ft | 430 kts | 237° |
| 2026-04-30 02:25 | -20.21483 | 174.12241 | 35024 ft | 431 kts | 237° |
| 2026-04-30 02:25 | -20.25257 | 174.07278 | 35022 ft | 431 kts | 237° |
| 2026-04-30 02:26 | -20.29021 | 174.02324 | 35021 ft | 430 kts | 237° |
| 2026-04-30 02:26 | -20.32783 | 173.97369 | 35020 ft | 430 kts | 237° |
| 2026-04-30 02:27 | -20.36520 | 173.92443 | 35023 ft | 430 kts | 237° |
| 2026-04-30 02:27 | -20.40278 | 173.87483 | 35023 ft | 430 kts | 237° |
| 2026-04-30 02:28 | -20.44037 | 173.82519 | 35027 ft | 430 kts | 237° |
| 2026-04-30 02:28 | -20.47792 | 173.77556 | 35025 ft | 430 kts | 237° |
| 2026-04-30 02:29 | -20.51547 | 173.72588 | 35033 ft | 430 kts | 237° |
| 2026-04-30 02:29 | -20.55299 | 173.67620 | 35033 ft | 430 kts | 237° |
| 2026-04-30 02:30 | -20.59048 | 173.62652 | 35021 ft | 429 kts | 237° |
| 2026-04-30 02:30 | -20.62769 | 173.57716 | 35030 ft | 429 kts | 237° |
| 2026-04-30 02:31 | -20.66508 | 173.52752 | 35037 ft | 429 kts | 237° |
| 2026-04-30 02:31 | -20.70249 | 173.47783 | 35029 ft | 429 kts | 237° |
| 2026-04-30 02:32 | -20.73987 | 173.42810 | 35028 ft | 429 kts | 238° |
| 2026-04-30 02:32 | -20.77718 | 173.37844 | 35034 ft | 429 kts | 238° |
| 2026-04-30 02:33 | -20.81452 | 173.32870 | 35029 ft | 429 kts | 238° |
| 2026-04-30 02:33 | -20.85183 | 173.27896 | 35031 ft | 429 kts | 238° |
| 2026-04-30 02:34 | -20.88912 | 173.22919 | 35032 ft | 429 kts | 238° |
| 2026-04-30 02:34 | -20.92643 | 173.17935 | 35034 ft | 429 kts | 238° |
| 2026-04-30 02:35 | -20.96348 | 173.12983 | 35034 ft | 429 kts | 238° |
| 2026-04-30 02:35 | -21.00073 | 173.07998 | 35035 ft | 429 kts | 238° |
| 2026-04-30 02:36 | -21.03800 | 173.03007 | 35038 ft | 429 kts | 238° |
| 2026-04-30 02:36 | -21.07526 | 172.98012 | 35037 ft | 429 kts | 238° |
| 2026-04-30 02:37 | -21.11252 | 172.93014 | 35036 ft | 429 kts | 238° |
| 2026-04-30 02:37 | -21.14980 | 172.88008 | 35039 ft | 429 kts | 238° |
| 2026-04-30 02:38 | -21.18700 | 172.83006 | 35036 ft | 430 kts | 238° |
| 2026-04-30 02:38 | -21.22404 | 172.78025 | 35039 ft | 430 kts | 238° |
| 2026-04-30 02:39 | -21.26136 | 172.72999 | 35037 ft | 430 kts | 238° |
| 2026-04-30 02:39 | -21.29866 | 172.67971 | 35036 ft | 430 kts | 238° |
| 2026-04-30 02:40 | -21.33598 | 172.62938 | 35036 ft | 431 kts | 238° |
| 2026-04-30 02:40 | -21.37328 | 172.57900 | 35037 ft | 431 kts | 238° |
| 2026-04-30 02:41 | -21.41041 | 172.52884 | 35041 ft | 432 kts | 238° |
| 2026-04-30 02:41 | -21.44778 | 172.47829 | 35043 ft | 432 kts | 238° |
| 2026-04-30 02:42 | -21.48514 | 172.42770 | 35043 ft | 432 kts | 238° |
| 2026-04-30 02:42 | -21.52252 | 172.37705 | 35042 ft | 433 kts | 238° |
| 2026-04-30 02:43 | -21.55995 | 172.32627 | 35146 ft | 434 kts | 239° |
| 2026-04-30 02:43 | -21.57867 | 172.30087 | 35347 ft | 433 kts | 239° |
| 2026-04-30 02:43 | -21.59734 | 172.27555 | 35560 ft | 431 kts | 239° |
| 2026-04-30 02:43 | -21.61592 | 172.25031 | 35756 ft | 430 kts | 239° |
| 2026-04-30 02:44 | -21.63422 | 172.22545 | 35935 ft | 429 kts | 239° |
| 2026-04-30 02:44 | -21.65269 | 172.20033 | 36123 ft | 428 kts | 239° |
| 2026-04-30 02:44 | -21.67110 | 172.17529 | 36289 ft | 427 kts | 239° |
| 2026-04-30 02:44 | -21.68950 | 172.15024 | 36453 ft | 426 kts | 239° |
| 2026-04-30 02:45 | -21.70789 | 172.12521 | 36611 ft | 425 kts | 240° |
| 2026-04-30 02:45 | -21.72616 | 172.10032 | 36767 ft | 424 kts | 240° |
| 2026-04-30 02:45 | -21.74444 | 172.07541 | 36921 ft | 423 kts | 240° |
| 2026-04-30 02:45 | -21.76267 | 172.05056 | 37029 ft | 423 kts | 240° |
| 2026-04-30 02:46 | -21.78087 | 172.02574 | 37042 ft | 422 kts | 240° |
| 2026-04-30 02:46 | -21.81717 | 171.97617 | 37045 ft | 422 kts | 240° |
| 2026-04-30 02:47 | -21.85326 | 171.92684 | 37052 ft | 422 kts | 240° |
| 2026-04-30 02:47 | -21.88963 | 171.87711 | 37052 ft | 422 kts | 240° |
| 2026-04-30 02:48 | -21.92600 | 171.82731 | 37053 ft | 422 kts | 240° |
| 2026-04-30 02:48 | -21.96237 | 171.77748 | 37055 ft | 422 kts | 240° |
| 2026-04-30 02:49 | -21.99849 | 171.72795 | 37056 ft | 422 kts | 240° |
| 2026-04-30 02:49 | -22.03487 | 171.67804 | 37058 ft | 423 kts | 240° |
| 2026-04-30 02:50 | -22.07120 | 171.62815 | 37055 ft | 423 kts | 240° |
| 2026-04-30 02:50 | -22.10755 | 171.57820 | 37057 ft | 423 kts | 240° |
| 2026-04-30 02:51 | -22.14358 | 171.52844 | 37057 ft | 423 kts | 240° |
| 2026-04-30 02:51 | -22.17993 | 171.47830 | 37061 ft | 424 kts | 240° |
| 2026-04-30 02:52 | -22.21625 | 171.42820 | 37063 ft | 424 kts | 241° |
| 2026-04-30 02:52 | -22.25257 | 171.37808 | 37061 ft | 424 kts | 241° |
| 2026-04-30 02:53 | -22.28889 | 171.32789 | 37063 ft | 424 kts | 241° |
| 2026-04-30 02:53 | -22.32519 | 171.27767 | 37064 ft | 424 kts | 241° |
| 2026-04-30 02:54 | -22.36147 | 171.22742 | 37063 ft | 424 kts | 242° |
| 2026-04-30 02:54 | -22.39749 | 171.17749 | 37071 ft | 424 kts | 242° |
| 2026-04-30 02:55 | -22.43362 | 171.12737 | 37062 ft | 421 kts | 242° |
| 2026-04-30 02:55 | -22.46958 | 171.07741 | 37060 ft | 421 kts | 242° |
| 2026-04-30 02:56 | -22.50554 | 171.02741 | 37063 ft | 420 kts | 242° |
| 2026-04-30 02:56 | -22.54139 | 170.97751 | 37062 ft | 420 kts | 242° |
| 2026-04-30 02:57 | -22.57116 | 170.93606 | 37063 ft | 419 kts | 242° |
| 2026-04-30 02:57 | -22.60688 | 170.88627 | 37066 ft | 418 kts | 242° |
| 2026-04-30 02:58 | -22.64254 | 170.83650 | 37066 ft | 417 kts | 242° |
| 2026-04-30 02:58 | -22.67808 | 170.78686 | 37067 ft | 417 kts | 242° |
| 2026-04-30 02:59 | -22.71361 | 170.73720 | 37071 ft | 416 kts | 242° |
| 2026-04-30 02:59 | -22.74875 | 170.68801 | 37063 ft | 415 kts | 242° |
| 2026-04-30 03:00 | -22.78409 | 170.63851 | 37069 ft | 415 kts | 242° |
| 2026-04-30 03:00 | -22.81935 | 170.58906 | 37057 ft | 414 kts | 242° |
| 2026-04-30 03:01 | -22.85402 | 170.54039 | 37063 ft | 414 kts | 242° |
| 2026-04-30 03:01 | -22.88922 | 170.49094 | 37072 ft | 414 kts | 242° |
| 2026-04-30 03:02 | -22.92441 | 170.44146 | 37063 ft | 414 kts | 242° |
| 2026-04-30 03:02 | -22.95956 | 170.39200 | 37066 ft | 414 kts | 242° |
| 2026-04-30 03:03 | -22.99467 | 170.34253 | 37069 ft | 414 kts | 242° |
| 2026-04-30 03:03 | -23.04715 | 170.26851 | 37073 ft | 414 kts | 242° |
| 2026-04-30 03:04 | -23.08231 | 170.21885 | 37074 ft | 414 kts | 242° |
| 2026-04-30 03:04 | -23.11750 | 170.16912 | 37075 ft | 415 kts | 242° |
| 2026-04-30 03:05 | -23.15270 | 170.11932 | 37075 ft | 415 kts | 242° |
| 2026-04-30 03:05 | -23.18785 | 170.06954 | 37082 ft | 415 kts | 242° |
| 2026-04-30 03:06 | -23.22305 | 170.01964 | 37085 ft | 416 kts | 242° |
| 2026-04-30 03:06 | -23.25821 | 169.96977 | 37086 ft | 416 kts | 242° |
| 2026-04-30 03:07 | -23.29312 | 169.92020 | 37078 ft | 414 kts | 242° |
| 2026-04-30 03:07 | -23.32811 | 169.87045 | 37075 ft | 414 kts | 242° |
| 2026-04-30 03:08 | -23.36310 | 169.82064 | 37074 ft | 414 kts | 242° |
| 2026-04-30 03:08 | -23.39808 | 169.77082 | 37076 ft | 413 kts | 242° |
| 2026-04-30 03:09 | -23.43300 | 169.72103 | 37076 ft | 414 kts | 242° |
| 2026-04-30 03:09 | -23.46792 | 169.67118 | 37079 ft | 414 kts | 242° |
| 2026-04-30 03:10 | -23.50264 | 169.62158 | 37083 ft | 414 kts | 242° |
| 2026-04-30 03:10 | -23.53755 | 169.57166 | 37083 ft | 414 kts | 242° |
| 2026-04-30 03:11 | -23.57250 | 169.52163 | 37085 ft | 414 kts | 242° |
| 2026-04-30 03:11 | -23.60745 | 169.47155 | 37088 ft | 414 kts | 242° |
| 2026-04-30 03:12 | -23.64231 | 169.42155 | 37087 ft | 414 kts | 242° |
| 2026-04-30 03:12 | -23.67717 | 169.37149 | 37084 ft | 414 kts | 242° |
| 2026-04-30 03:13 | -23.71179 | 169.32174 | 37081 ft | 414 kts | 242° |
| 2026-04-30 03:13 | -23.74659 | 169.27167 | 37084 ft | 414 kts | 241° |
| 2026-04-30 03:14 | -23.78141 | 169.22153 | 37081 ft | 414 kts | 241° |
| 2026-04-30 03:14 | -23.81614 | 169.17147 | 37082 ft | 413 kts | 241° |
| 2026-04-30 03:15 | -23.85091 | 169.12128 | 37080 ft | 413 kts | 241° |
| 2026-04-30 03:15 | -23.88538 | 169.07150 | 37080 ft | 413 kts | 241° |
| 2026-04-30 03:16 | -23.92009 | 169.02132 | 37081 ft | 413 kts | 241° |
| 2026-04-30 03:16 | -23.94877 | 168.97981 | 37081 ft | 413 kts | 241° |
| 2026-04-30 03:17 | -23.98342 | 168.92963 | 37081 ft | 414 kts | 241° |
| 2026-04-30 03:17 | -24.01814 | 168.87929 | 37085 ft | 414 kts | 241° |
| 2026-04-30 03:18 | -24.05256 | 168.82933 | 37087 ft | 414 kts | 241° |
| 2026-04-30 03:18 | -24.08710 | 168.77914 | 37096 ft | 415 kts | 241° |
| 2026-04-30 03:19 | -24.10454 | 168.75379 | 37208 ft | 415 kts | 241° |
| 2026-04-30 03:19 | -24.11484 | 168.73881 | 37289 ft | 414 kts | 241° |
| 2026-04-30 03:19 | -24.13216 | 168.71361 | 37422 ft | 414 kts | 241° |
| 2026-04-30 03:19 | -24.14923 | 168.68877 | 37545 ft | 413 kts | 241° |
| 2026-04-30 03:20 | -24.16650 | 168.66362 | 37659 ft | 413 kts | 241° |
| 2026-04-30 03:20 | -24.18378 | 168.63843 | 37772 ft | 413 kts | 241° |
| 2026-04-30 03:20 | -24.20108 | 168.61321 | 37884 ft | 413 kts | 241° |
| 2026-04-30 03:20 | -24.21829 | 168.58810 | 37983 ft | 412 kts | 241° |
| 2026-04-30 03:21 | -24.25277 | 168.53776 | 38093 ft | 412 kts | 241° |
| 2026-04-30 03:21 | -24.28712 | 168.48756 | 38100 ft | 411 kts | 241° |
| 2026-04-30 03:22 | -24.32145 | 168.43734 | 38098 ft | 412 kts | 241° |
| 2026-04-30 03:22 | -24.35577 | 168.38708 | 38097 ft | 411 kts | 241° |
| 2026-04-30 03:23 | -24.38984 | 168.33713 | 38097 ft | 411 kts | 241° |
| 2026-04-30 03:23 | -24.42414 | 168.28679 | 38100 ft | 412 kts | 241° |
| 2026-04-30 03:24 | -24.45842 | 168.23644 | 38105 ft | 411 kts | 241° |
| 2026-04-30 03:24 | -24.49266 | 168.18610 | 38098 ft | 411 kts | 241° |
| 2026-04-30 03:25 | -24.52695 | 168.13563 | 38107 ft | 411 kts | 241° |
| 2026-04-30 03:25 | -24.56096 | 168.08550 | 38102 ft | 411 kts | 241° |
| 2026-04-30 03:26 | -24.59514 | 168.03510 | 38104 ft | 411 kts | 241° |
| 2026-04-30 03:26 | -24.62950 | 167.98436 | 38107 ft | 411 kts | 240° |
| 2026-04-30 03:27 | -24.66339 | 167.93426 | 38109 ft | 411 kts | 240° |
| 2026-04-30 03:27 | -24.69747 | 167.88386 | 38108 ft | 411 kts | 240° |
| 2026-04-30 03:28 | -24.73155 | 167.83341 | 38111 ft | 410 kts | 240° |
| 2026-04-30 03:28 | -24.76556 | 167.78303 | 38109 ft | 410 kts | 240° |
| 2026-04-30 03:29 | -24.79954 | 167.73261 | 38107 ft | 410 kts | 240° |
| 2026-04-30 03:29 | -24.83336 | 167.68218 | 38108 ft | 409 kts | 240° |
| 2026-04-30 03:30 | -24.86721 | 167.63174 | 38108 ft | 409 kts | 240° |
| 2026-04-30 03:30 | -24.90105 | 167.58135 | 38107 ft | 409 kts | 240° |
| 2026-04-30 03:31 | -24.93485 | 167.53099 | 38106 ft | 409 kts | 240° |
| 2026-04-30 03:31 | -24.96844 | 167.48089 | 38108 ft | 409 kts | 240° |
| 2026-04-30 03:32 | -25.00220 | 167.43046 | 38109 ft | 408 kts | 240° |
| 2026-04-30 03:32 | -25.03588 | 167.38008 | 38108 ft | 408 kts | 240° |
| 2026-04-30 03:33 | -25.06958 | 167.32961 | 38108 ft | 408 kts | 240° |
| 2026-04-30 03:33 | -25.10335 | 167.27900 | 38113 ft | 408 kts | 240° |
| 2026-04-30 03:34 | -25.13676 | 167.22885 | 38111 ft | 408 kts | 240° |
| 2026-04-30 03:34 | -25.17042 | 167.17830 | 38109 ft | 409 kts | 240° |
| 2026-04-30 03:35 | -25.20410 | 167.12766 | 38113 ft | 409 kts | 240° |
| 2026-04-30 03:35 | -25.23778 | 167.07695 | 38114 ft | 409 kts | 240° |
| 2026-04-30 03:36 | -25.27146 | 167.02620 | 38120 ft | 409 kts | 240° |
| 2026-04-30 03:36 | -25.30492 | 166.97572 | 38119 ft | 409 kts | 240° |
| 2026-04-30 03:37 | -25.33856 | 166.92491 | 38119 ft | 409 kts | 240° |
| 2026-04-30 03:37 | -25.37223 | 166.87401 | 38126 ft | 409 kts | 240° |
| 2026-04-30 03:38 | -25.40559 | 166.82352 | 38123 ft | 409 kts | 240° |
| 2026-04-30 03:38 | -25.43914 | 166.77270 | 38129 ft | 409 kts | 240° |
| 2026-04-30 03:39 | -25.47268 | 166.72182 | 38129 ft | 409 kts | 240° |
| 2026-04-30 03:39 | -25.50619 | 166.67094 | 38127 ft | 409 kts | 240° |
| 2026-04-30 03:40 | -25.53968 | 166.62003 | 38126 ft | 409 kts | 240° |
| 2026-04-30 03:40 | -25.57313 | 166.56914 | 38126 ft | 409 kts | 239° |
| 2026-04-30 03:41 | -25.60663 | 166.51810 | 38132 ft | 408 kts | 239° |
| 2026-04-30 03:41 | -25.63981 | 166.46750 | 38128 ft | 408 kts | 239° |
| 2026-04-30 03:42 | -25.67321 | 166.41652 | 38125 ft | 408 kts | 239° |
| 2026-04-30 03:42 | -25.70657 | 166.36553 | 38127 ft | 408 kts | 239° |
| 2026-04-30 03:43 | -25.73987 | 166.31458 | 38131 ft | 408 kts | 239° |
| 2026-04-30 03:43 | -25.77319 | 166.26355 | 38137 ft | 408 kts | 239° |
| 2026-04-30 03:44 | -25.80627 | 166.21284 | 38135 ft | 408 kts | 239° |
| 2026-04-30 03:44 | -25.83954 | 166.16176 | 38135 ft | 408 kts | 239° |
| 2026-04-30 03:45 | -25.87278 | 166.11069 | 38137 ft | 408 kts | 239° |
| 2026-04-30 03:45 | -25.90601 | 166.05957 | 38137 ft | 408 kts | 239° |
| 2026-04-30 03:46 | -25.93367 | 166.01697 | 38137 ft | 408 kts | 239° |
| 2026-04-30 03:46 | -25.96690 | 165.96575 | 38138 ft | 408 kts | 239° |
| 2026-04-30 03:47 | -26.00015 | 165.91444 | 38138 ft | 409 kts | 239° |
| 2026-04-30 03:47 | -26.03336 | 165.86313 | 38132 ft | 409 kts | 240° |
| 2026-04-30 03:48 | -26.07199 | 165.80338 | 38133 ft | 410 kts | 239° |
| 2026-04-30 03:48 | -26.09990 | 165.76016 | 38135 ft | 410 kts | 239° |
| 2026-04-30 03:49 | -26.13319 | 165.70856 | 38136 ft | 411 kts | 239° |
| 2026-04-30 03:49 | -26.16630 | 165.65717 | 38138 ft | 411 kts | 239° |
| 2026-04-30 03:50 | -26.19968 | 165.60531 | 38140 ft | 412 kts | 239° |
| 2026-04-30 03:50 | -26.23307 | 165.55338 | 38142 ft | 413 kts | 239° |
| 2026-04-30 03:51 | -26.26650 | 165.50133 | 38144 ft | 413 kts | 239° |
| 2026-04-30 03:51 | -26.29997 | 165.44915 | 38151 ft | 414 kts | 239° |
| 2026-04-30 03:52 | -26.33343 | 165.39693 | 38155 ft | 414 kts | 239° |
| 2026-04-30 03:52 | -26.36697 | 165.34452 | 38146 ft | 415 kts | 239° |
| 2026-04-30 03:53 | -26.40020 | 165.29256 | 38151 ft | 413 kts | 239° |
| 2026-04-30 03:53 | -26.43341 | 165.24053 | 38147 ft | 414 kts | 239° |
| 2026-04-30 03:54 | -26.46683 | 165.18814 | 38150 ft | 414 kts | 239° |
| 2026-04-30 03:54 | -26.50019 | 165.13578 | 38151 ft | 414 kts | 239° |
| 2026-04-30 03:55 | -26.53353 | 165.08339 | 38151 ft | 414 kts | 239° |
| 2026-04-30 03:55 | -26.56691 | 165.03088 | 38155 ft | 414 kts | 239° |
| 2026-04-30 03:56 | -26.60028 | 164.97831 | 38154 ft | 414 kts | 239° |
| 2026-04-30 03:56 | -26.63366 | 164.92568 | 38155 ft | 415 kts | 239° |
| 2026-04-30 03:57 | -26.66678 | 164.87338 | 38159 ft | 415 kts | 239° |
| 2026-04-30 03:57 | -26.70013 | 164.82068 | 38159 ft | 415 kts | 239° |
| 2026-04-30 03:58 | -26.73348 | 164.76791 | 38159 ft | 415 kts | 239° |
| 2026-04-30 03:58 | -26.76681 | 164.71509 | 38163 ft | 415 kts | 239° |
| 2026-04-30 03:59 | -26.80009 | 164.66231 | 38164 ft | 415 kts | 239° |
| 2026-04-30 03:59 | -26.83294 | 164.61015 | 38165 ft | 415 kts | 239° |
| 2026-04-30 04:00 | -26.86594 | 164.55769 | 38162 ft | 414 kts | 239° |
| 2026-04-30 04:00 | -26.89912 | 164.50487 | 38170 ft | 414 kts | 239° |
| 2026-04-30 04:01 | -26.93225 | 164.45207 | 38162 ft | 414 kts | 239° |
| 2026-04-30 04:01 | -26.96541 | 164.39917 | 38163 ft | 414 kts | 239° |
| 2026-04-30 04:02 | -26.99851 | 164.34633 | 38164 ft | 415 kts | 239° |
| 2026-04-30 04:02 | -27.03170 | 164.29327 | 38162 ft | 416 kts | 239° |
| 2026-04-30 04:03 | -27.06492 | 164.24009 | 38165 ft | 416 kts | 239° |
| 2026-04-30 04:03 | -27.09817 | 164.18678 | 38166 ft | 417 kts | 239° |
| 2026-04-30 04:04 | -27.13151 | 164.13328 | 38164 ft | 418 kts | 239° |
| 2026-04-30 04:04 | -27.16491 | 164.07960 | 38170 ft | 419 kts | 239° |
| 2026-04-30 04:05 | -27.19810 | 164.02619 | 38170 ft | 420 kts | 239° |
| 2026-04-30 04:05 | -27.23156 | 163.97229 | 38170 ft | 421 kts | 239° |
| 2026-04-30 04:06 | -27.26509 | 163.91820 | 38179 ft | 421 kts | 239° |
| 2026-04-30 04:06 | -27.29860 | 163.86411 | 38166 ft | 420 kts | 239° |
| 2026-04-30 04:07 | -27.33194 | 163.81018 | 38169 ft | 420 kts | 239° |
| 2026-04-30 04:08 | -27.38186 | 163.72934 | 38171 ft | 420 kts | 239° |
| 2026-04-30 04:08 | -27.41520 | 163.67527 | 38169 ft | 421 kts | 239° |
| 2026-04-30 04:09 | -27.44856 | 163.62110 | 38174 ft | 421 kts | 239° |
| 2026-04-30 04:09 | -27.48188 | 163.56693 | 38174 ft | 421 kts | 239° |
| 2026-04-30 04:10 | -27.51522 | 163.51267 | 38179 ft | 421 kts | 239° |
| 2026-04-30 04:10 | -27.54856 | 163.45834 | 38180 ft | 421 kts | 239° |
| 2026-04-30 04:11 | -27.58168 | 163.40429 | 38177 ft | 421 kts | 239° |
| 2026-04-30 04:11 | -27.61503 | 163.34981 | 38181 ft | 422 kts | 239° |
| 2026-04-30 04:12 | -27.64834 | 163.29532 | 38175 ft | 422 kts | 239° |
| 2026-04-30 04:12 | -27.68165 | 163.24075 | 38179 ft | 422 kts | 239° |
| 2026-04-30 04:13 | -27.71495 | 163.18616 | 38178 ft | 422 kts | 239° |
| 2026-04-30 04:13 | -27.74802 | 163.13189 | 38178 ft | 422 kts | 239° |
| 2026-04-30 04:14 | -27.78132 | 163.07720 | 38178 ft | 423 kts | 239° |
| 2026-04-30 04:14 | -27.81463 | 163.02242 | 38184 ft | 423 kts | 239° |
| 2026-04-30 04:15 | -27.84791 | 162.96749 | 38184 ft | 423 kts | 239° |
| 2026-04-30 04:15 | -27.88109 | 162.91248 | 38193 ft | 424 kts | 239° |
| 2026-04-30 04:16 | -27.90866 | 162.86686 | 38193 ft | 424 kts | 239° |
| 2026-04-30 04:16 | -27.94198 | 162.81176 | 38198 ft | 424 kts | 239° |
| 2026-04-30 04:17 | -27.97504 | 162.75705 | 38197 ft | 424 kts | 239° |
| 2026-04-30 04:17 | -28.00829 | 162.70193 | 38199 ft | 424 kts | 239° |
| 2026-04-30 04:18 | -28.04150 | 162.64679 | 38199 ft | 424 kts | 239° |
| 2026-04-30 04:18 | -28.07465 | 162.59165 | 38201 ft | 423 kts | 239° |
| 2026-04-30 04:19 | -28.10778 | 162.53648 | 38202 ft | 423 kts | 240° |
| 2026-04-30 04:19 | -28.14088 | 162.48128 | 38201 ft | 423 kts | 239° |
| 2026-04-30 04:20 | -28.17374 | 162.42642 | 38201 ft | 423 kts | 240° |
| 2026-04-30 04:20 | -28.20675 | 162.37122 | 38200 ft | 423 kts | 239° |
| 2026-04-30 04:21 | -28.23975 | 162.31598 | 38203 ft | 422 kts | 240° |
| 2026-04-30 04:21 | -28.27266 | 162.26081 | 38203 ft | 422 kts | 240° |
| 2026-04-30 04:22 | -28.30555 | 162.20562 | 38207 ft | 422 kts | 240° |
| 2026-04-30 04:22 | -28.33821 | 162.15073 | 38203 ft | 422 kts | 240° |
| 2026-04-30 04:23 | -28.37105 | 162.09546 | 38208 ft | 422 kts | 240° |
| 2026-04-30 04:23 | -28.40383 | 162.04023 | 38211 ft | 422 kts | 240° |
| 2026-04-30 04:24 | -28.43658 | 161.98499 | 38214 ft | 422 kts | 240° |
| 2026-04-30 04:24 | -28.46930 | 161.92971 | 38218 ft | 421 kts | 240° |
| 2026-04-30 04:25 | -28.50205 | 161.87431 | 38216 ft | 422 kts | 240° |
| 2026-04-30 04:25 | -28.53460 | 161.81919 | 38214 ft | 422 kts | 240° |
| 2026-04-30 04:26 | -28.56727 | 161.76378 | 38220 ft | 422 kts | 240° |
| 2026-04-30 04:26 | -28.59993 | 161.70831 | 38222 ft | 422 kts | 240° |
| 2026-04-30 04:27 | -28.63260 | 161.65278 | 38223 ft | 422 kts | 240° |
| 2026-04-30 04:27 | -28.66521 | 161.59724 | 38229 ft | 422 kts | 240° |
| 2026-04-30 04:28 | -28.69770 | 161.54172 | 38226 ft | 418 kts | 238° |
| 2026-04-30 04:28 | -28.72983 | 161.48680 | 38226 ft | 417 kts | 238° |
| 2026-04-30 04:29 | -28.76208 | 161.43167 | 38230 ft | 418 kts | 238° |
| 2026-04-30 04:29 | -28.79431 | 161.37652 | 38229 ft | 418 kts | 238° |
| 2026-04-30 04:30 | -28.82652 | 161.32132 | 38236 ft | 418 kts | 238° |
| 2026-04-30 04:30 | -28.85853 | 161.26639 | 38230 ft | 418 kts | 238° |
| 2026-04-30 04:31 | -28.89076 | 161.21102 | 38234 ft | 418 kts | 238° |
| 2026-04-30 04:31 | -28.92292 | 161.15571 | 38236 ft | 418 kts | 238° |
| 2026-04-30 04:32 | -28.95505 | 161.10037 | 38235 ft | 418 kts | 238° |
| 2026-04-30 04:32 | -28.98176 | 161.05431 | 38237 ft | 418 kts | 238° |
| 2026-04-30 04:33 | -29.01387 | 160.99887 | 38236 ft | 419 kts | 238° |
| 2026-04-30 04:33 | -29.05124 | 160.93424 | 38246 ft | 419 kts | 238° |
| 2026-04-30 04:34 | -29.07814 | 160.88767 | 38249 ft | 419 kts | 238° |
| 2026-04-30 04:34 | -29.11024 | 160.83201 | 38247 ft | 419 kts | 238° |
| 2026-04-30 04:35 | -29.14214 | 160.77664 | 38252 ft | 419 kts | 238° |
| 2026-04-30 04:35 | -29.17422 | 160.72087 | 38250 ft | 419 kts | 238° |
| 2026-04-30 04:36 | -29.20629 | 160.66503 | 38254 ft | 419 kts | 238° |
| 2026-04-30 04:36 | -29.23835 | 160.60916 | 38255 ft | 420 kts | 238° |
| 2026-04-30 04:37 | -29.27035 | 160.55330 | 38257 ft | 420 kts | 238° |
| 2026-04-30 04:37 | -29.30237 | 160.49733 | 38260 ft | 420 kts | 238° |
| 2026-04-30 04:38 | -29.33416 | 160.44169 | 38266 ft | 420 kts | 238° |
| 2026-04-30 04:38 | -29.36614 | 160.38563 | 38267 ft | 420 kts | 238° |
| 2026-04-30 04:39 | -29.39806 | 160.32960 | 38266 ft | 419 kts | 238° |
| 2026-04-30 04:39 | -29.42995 | 160.27356 | 38272 ft | 419 kts | 238° |
| 2026-04-30 04:40 | -29.46179 | 160.21752 | 38273 ft | 419 kts | 238° |
| 2026-04-30 04:40 | -29.49363 | 160.16143 | 38271 ft | 419 kts | 238° |
| 2026-04-30 04:41 | -29.52518 | 160.10573 | 38276 ft | 419 kts | 238° |
| 2026-04-30 04:41 | -29.55691 | 160.04967 | 38279 ft | 419 kts | 238° |
| 2026-04-30 04:42 | -29.58860 | 159.99360 | 38280 ft | 418 kts | 238° |
| 2026-04-30 04:42 | -29.62030 | 159.93742 | 38278 ft | 418 kts | 238° |
| 2026-04-30 04:43 | -29.65195 | 159.88126 | 38281 ft | 418 kts | 238° |
| 2026-04-30 04:43 | -29.68360 | 159.82502 | 38280 ft | 418 kts | 238° |
| 2026-04-30 04:44 | -29.71498 | 159.76919 | 38280 ft | 418 kts | 238° |
| 2026-04-30 04:44 | -29.74654 | 159.71295 | 38281 ft | 418 kts | 238° |
| 2026-04-30 04:45 | -29.77807 | 159.65669 | 38283 ft | 418 kts | 238° |
| 2026-04-30 04:45 | -29.80959 | 159.60037 | 38283 ft | 418 kts | 238° |
| 2026-04-30 04:46 | -29.84108 | 159.54403 | 38285 ft | 418 kts | 238° |
| 2026-04-30 04:46 | -29.87255 | 159.48764 | 38288 ft | 418 kts | 238° |
| 2026-04-30 04:47 | -29.90401 | 159.43120 | 38292 ft | 418 kts | 238° |
| 2026-04-30 04:47 | -29.93545 | 159.37470 | 38293 ft | 418 kts | 238° |
| 2026-04-30 04:48 | -29.96687 | 159.31817 | 38300 ft | 419 kts | 238° |
| 2026-04-30 04:48 | -29.99827 | 159.26159 | 38300 ft | 419 kts | 238° |
| 2026-04-30 04:49 | -30.02946 | 159.20533 | 38301 ft | 419 kts | 238° |
| 2026-04-30 04:49 | -30.06085 | 159.14860 | 38301 ft | 419 kts | 238° |
| 2026-04-30 04:50 | -30.09217 | 159.09194 | 38305 ft | 419 kts | 238° |
| 2026-04-30 04:50 | -30.12348 | 159.03522 | 38308 ft | 419 kts | 238° |
| 2026-04-30 04:51 | -30.15477 | 158.97844 | 38312 ft | 419 kts | 238° |
| 2026-04-30 04:51 | -30.18602 | 158.92165 | 38312 ft | 419 kts | 238° |
| 2026-04-30 04:52 | -30.21723 | 158.86485 | 38308 ft | 419 kts | 238° |
| 2026-04-30 04:52 | -30.24848 | 158.80792 | 38309 ft | 419 kts | 238° |
| 2026-04-30 04:53 | -30.27950 | 158.75130 | 38306 ft | 419 kts | 238° |
| 2026-04-30 04:53 | -30.31064 | 158.69441 | 38310 ft | 418 kts | 238° |
| 2026-04-30 04:54 | -30.34155 | 158.63784 | 38312 ft | 418 kts | 238° |
| 2026-04-30 04:54 | -30.37262 | 158.58090 | 38316 ft | 418 kts | 238° |
| 2026-04-30 04:55 | -30.40373 | 158.52380 | 38320 ft | 418 kts | 238° |
| 2026-04-30 04:55 | -30.43480 | 158.46670 | 38315 ft | 418 kts | 238° |
| 2026-04-30 04:56 | -30.46580 | 158.40964 | 38317 ft | 418 kts | 238° |
| 2026-04-30 04:56 | -30.49679 | 158.35253 | 38319 ft | 418 kts | 238° |
| 2026-04-30 04:57 | -30.52777 | 158.29534 | 38318 ft | 418 kts | 238° |
| 2026-04-30 04:57 | -30.55871 | 158.23816 | 38323 ft | 419 kts | 238° |
| 2026-04-30 04:58 | -30.58972 | 158.18079 | 38427 ft | 424 kts | 239° |
| 2026-04-30 04:58 | -30.62116 | 158.12253 | 38332 ft | 431 kts | 239° |
| 2026-04-30 04:59 | -30.65312 | 158.06317 | 38332 ft | 435 kts | 239° |
| 2026-04-30 04:59 | -30.68519 | 158.00356 | 38329 ft | 434 kts | 239° |
| 2026-04-30 05:00 | -30.71713 | 157.94409 | 38333 ft | 434 kts | 238° |
| 2026-04-30 05:00 | -30.74909 | 157.88446 | 38334 ft | 435 kts | 238° |
| 2026-04-30 05:01 | -30.78099 | 157.82485 | 38338 ft | 433 kts | 238° |
| 2026-04-30 05:01 | -30.81286 | 157.76519 | 38339 ft | 435 kts | 238° |
| 2026-04-30 05:02 | -30.84466 | 157.70558 | 38344 ft | 437 kts | 238° |
| 2026-04-30 05:02 | -30.87657 | 157.64566 | 38342 ft | 434 kts | 237° |
| 2026-04-30 05:03 | -30.90846 | 157.58577 | 38342 ft | 436 kts | 237° |
| 2026-04-30 05:03 | -30.94045 | 157.52561 | 38348 ft | 437 kts | 237° |
| 2026-04-30 05:04 | -30.97240 | 157.46546 | 38346 ft | 437 kts | 237° |
| 2026-04-30 05:04 | -31.00568 | 157.40635 | 38348 ft | 435 kts | 230° |
| 2026-04-30 05:05 | -31.04717 | 157.35519 | 38354 ft | 434 kts | 221° |
| 2026-04-30 05:05 | -31.09144 | 157.30718 | 38354 ft | 434 kts | 222° |
| 2026-04-30 05:06 | -31.15779 | 157.23512 | 38356 ft | 434 kts | 221° |
| 2026-04-30 05:06 | -31.20203 | 157.18706 | 38357 ft | 434 kts | 221° |
| 2026-04-30 05:07 | -31.24620 | 157.13899 | 38357 ft | 434 kts | 221° |
| 2026-04-30 05:07 | -31.29033 | 157.09090 | 38361 ft | 433 kts | 221° |
| 2026-04-30 05:08 | -31.33448 | 157.04273 | 38366 ft | 434 kts | 221° |
| 2026-04-30 05:08 | -31.37836 | 156.99478 | 38367 ft | 434 kts | 221° |
| 2026-04-30 05:09 | -31.42253 | 156.94645 | 38370 ft | 435 kts | 221° |
| 2026-04-30 05:09 | -31.46672 | 156.89803 | 38365 ft | 435 kts | 221° |
| 2026-04-30 05:10 | -31.51073 | 156.84976 | 38194 ft | 432 kts | 223° |
| 2026-04-30 05:10 | -31.53251 | 156.82604 | 38375 ft | 423 kts | 224° |
| 2026-04-30 05:10 | -31.55391 | 156.80258 | 38373 ft | 420 kts | 225° |
| 2026-04-30 05:11 | -31.59647 | 156.75576 | 38372 ft | 423 kts | 225° |
| 2026-04-30 05:11 | -31.63932 | 156.70853 | 38370 ft | 422 kts | 225° |
| 2026-04-30 05:12 | -31.68213 | 156.66131 | 38375 ft | 423 kts | 225° |
| 2026-04-30 05:12 | -31.72498 | 156.61397 | 38374 ft | 423 kts | 225° |
| 2026-04-30 05:13 | -31.76784 | 156.56655 | 38373 ft | 423 kts | 225° |
| 2026-04-30 05:13 | -31.81071 | 156.51905 | 38375 ft | 423 kts | 225° |
| 2026-04-30 05:14 | -31.85328 | 156.47181 | 38385 ft | 423 kts | 225° |
| 2026-04-30 05:14 | -31.89614 | 156.42420 | 38381 ft | 424 kts | 225° |
| 2026-04-30 05:15 | -31.93899 | 156.37654 | 38386 ft | 424 kts | 225° |
| 2026-04-30 05:15 | -31.98190 | 156.32875 | 38388 ft | 424 kts | 225° |
| 2026-04-30 05:16 | -32.02477 | 156.28095 | 38392 ft | 424 kts | 225° |
| 2026-04-30 05:16 | -32.06764 | 156.23307 | 38397 ft | 424 kts | 225° |
| 2026-04-30 05:17 | -32.11023 | 156.18545 | 38395 ft | 424 kts | 225° |
| 2026-04-30 05:17 | -32.15308 | 156.13748 | 38392 ft | 424 kts | 225° |
| 2026-04-30 05:18 | -32.19591 | 156.08945 | 38398 ft | 425 kts | 225° |
| 2026-04-30 05:18 | -32.23875 | 156.04136 | 38394 ft | 425 kts | 225° |
| 2026-04-30 05:19 | -32.28157 | 155.99322 | 38394 ft | 425 kts | 225° |
| 2026-04-30 05:19 | -32.32441 | 155.94499 | 38396 ft | 425 kts | 225° |
| 2026-04-30 05:20 | -32.36000 | 155.90487 | 38395 ft | 425 kts | 225° |
| 2026-04-30 05:20 | -32.40977 | 155.84870 | 38406 ft | 425 kts | 225° |
| 2026-04-30 05:21 | -32.45257 | 155.80032 | 38399 ft | 425 kts | 225° |
| 2026-04-30 05:21 | -32.48816 | 155.76003 | 38409 ft | 425 kts | 225° |
| 2026-04-30 05:22 | -32.53038 | 155.71219 | 38407 ft | 426 kts | 225° |
| 2026-04-30 05:22 | -32.58042 | 155.65540 | 38409 ft | 426 kts | 225° |
| 2026-04-30 05:23 | -32.61599 | 155.61498 | 38414 ft | 426 kts | 225° |
| 2026-04-30 05:23 | -32.65876 | 155.56631 | 38410 ft | 426 kts | 225° |
| 2026-04-30 05:24 | -32.70153 | 155.51757 | 38408 ft | 426 kts | 225° |
| 2026-04-30 05:24 | -32.74403 | 155.46908 | 38414 ft | 426 kts | 225° |
| 2026-04-30 05:25 | -32.78677 | 155.42023 | 38412 ft | 426 kts | 225° |
| 2026-04-30 05:25 | -32.82955 | 155.37127 | 38413 ft | 426 kts | 225° |
| 2026-04-30 05:26 | -32.87231 | 155.32227 | 38421 ft | 426 kts | 225° |
| 2026-04-30 05:26 | -32.91505 | 155.27323 | 38421 ft | 427 kts | 225° |
| 2026-04-30 05:27 | -32.95777 | 155.22414 | 38421 ft | 427 kts | 225° |
| 2026-04-30 05:27 | -33.00022 | 155.17529 | 38415 ft | 427 kts | 225° |
| 2026-04-30 05:28 | -33.04291 | 155.12609 | 38422 ft | 427 kts | 225° |
| 2026-04-30 05:28 | -33.08557 | 155.07686 | 38422 ft | 427 kts | 225° |
| 2026-04-30 05:29 | -33.12827 | 155.02752 | 38420 ft | 427 kts | 225° |
| 2026-04-30 05:29 | -33.17093 | 154.97814 | 38429 ft | 427 kts | 225° |
| 2026-04-30 05:30 | -33.21362 | 154.92867 | 38425 ft | 427 kts | 225° |
| 2026-04-30 05:30 | -33.25625 | 154.87919 | 38427 ft | 427 kts | 226° |
| 2026-04-30 05:31 | -33.29891 | 154.82960 | 38431 ft | 427 kts | 226° |
| 2026-04-30 05:31 | -33.34155 | 154.77997 | 38423 ft | 428 kts | 226° |
| 2026-04-30 05:32 | -33.38415 | 154.73031 | 38428 ft | 428 kts | 226° |
| 2026-04-30 05:32 | -33.42650 | 154.68087 | 38428 ft | 428 kts | 226° |
| 2026-04-30 05:33 | -33.46910 | 154.63107 | 38431 ft | 428 kts | 226° |
| 2026-04-30 05:33 | -33.51172 | 154.58117 | 38433 ft | 428 kts | 226° |
| 2026-04-30 05:34 | -33.55431 | 154.53123 | 38431 ft | 428 kts | 226° |
| 2026-04-30 05:34 | -33.59698 | 154.48113 | 38432 ft | 429 kts | 226° |
| 2026-04-30 05:35 | -33.63959 | 154.43103 | 38433 ft | 429 kts | 226° |
| 2026-04-30 05:35 | -33.68190 | 154.38120 | 38432 ft | 429 kts | 226° |
| 2026-04-30 05:36 | -33.72448 | 154.33098 | 38434 ft | 429 kts | 226° |
| 2026-04-30 05:36 | -33.76705 | 154.28071 | 38432 ft | 429 kts | 226° |
| 2026-04-30 05:37 | -33.80959 | 154.23041 | 38427 ft | 429 kts | 226° |
| 2026-04-30 05:37 | -33.85216 | 154.18002 | 38436 ft | 429 kts | 226° |
| 2026-04-30 05:38 | -33.88963 | 154.12453 | 38427 ft | 427 kts | 240° |
| 2026-04-30 05:38 | -33.91220 | 154.05874 | 38421 ft | 427 kts | 256° |
| 2026-04-30 05:39 | -33.92143 | 153.98862 | 38422 ft | 427 kts | 261° |
| 2026-04-30 05:39 | -33.92991 | 153.91774 | 38422 ft | 428 kts | 261° |
| 2026-04-30 05:40 | -33.93833 | 153.84681 | 38423 ft | 428 kts | 261° |
| 2026-04-30 05:40 | -33.94668 | 153.77570 | 38424 ft | 428 kts | 261° |
| 2026-04-30 05:41 | -33.95498 | 153.70457 | 38432 ft | 429 kts | 261° |
| 2026-04-30 05:41 | -33.96325 | 153.63335 | 38430 ft | 429 kts | 261° |
| 2026-04-30 05:42 | -33.97148 | 153.56207 | 38434 ft | 430 kts | 261° |
| 2026-04-30 05:42 | -33.97964 | 153.49108 | 38435 ft | 430 kts | 261° |
| 2026-04-30 05:43 | -33.98781 | 153.41957 | 38436 ft | 430 kts | 261° |
| 2026-04-30 05:43 | -33.99594 | 153.34808 | 38436 ft | 431 kts | 261° |
| 2026-04-30 05:44 | -34.00403 | 153.27654 | 38425 ft | 430 kts | 261° |
| 2026-04-30 05:44 | -34.01205 | 153.20529 | 38429 ft | 429 kts | 261° |
| 2026-04-30 05:45 | -34.02004 | 153.13392 | 38429 ft | 429 kts | 261° |
| 2026-04-30 05:45 | -34.02794 | 153.06302 | 38426 ft | 429 kts | 262° |
| 2026-04-30 05:46 | -34.03586 | 152.99153 | 38427 ft | 429 kts | 262° |
| 2026-04-30 05:46 | -34.04372 | 152.92013 | 38428 ft | 429 kts | 262° |
| 2026-04-30 05:47 | -34.05155 | 152.84861 | 38421 ft | 430 kts | 262° |
| 2026-04-30 05:47 | -34.05930 | 152.77754 | 38429 ft | 430 kts | 262° |
| 2026-04-30 05:48 | -34.06704 | 152.70610 | 38430 ft | 430 kts | 262° |
| 2026-04-30 05:48 | -34.07480 | 152.63459 | 38425 ft | 430 kts | 260° |
| 2026-04-30 05:49 | -34.08898 | 152.56474 | 38426 ft | 429 kts | 250° |
| 2026-04-30 05:49 | -34.11342 | 152.49910 | 38430 ft | 429 kts | 240° |
| 2026-04-30 05:50 | -34.14303 | 152.43656 | 38429 ft | 429 kts | 240° |
| 2026-04-30 05:50 | -34.17246 | 152.37390 | 38427 ft | 429 kts | 240° |
| 2026-04-30 05:51 | -34.20196 | 152.31108 | 38426 ft | 430 kts | 240° |
| 2026-04-30 05:51 | -34.23141 | 152.24824 | 38428 ft | 430 kts | 240° |
| 2026-04-30 05:52 | -34.26066 | 152.18573 | 38427 ft | 430 kts | 240° |
| 2026-04-30 05:52 | -34.29009 | 152.12269 | 38428 ft | 430 kts | 240° |
| 2026-04-30 05:53 | -34.31950 | 152.05960 | 38426 ft | 431 kts | 240° |
| 2026-04-30 05:53 | -34.34887 | 151.99646 | 38427 ft | 431 kts | 241° |
| 2026-04-30 05:54 | -34.37825 | 151.93320 | 38425 ft | 431 kts | 241° |
| 2026-04-30 05:54 | -34.40741 | 151.87030 | 38430 ft | 431 kts | 241° |
| 2026-04-30 05:55 | -34.43676 | 151.80688 | 38427 ft | 431 kts | 241° |
| 2026-04-30 05:55 | -34.46605 | 151.74348 | 38424 ft | 431 kts | 241° |
| 2026-04-30 05:56 | -34.49531 | 151.68000 | 38421 ft | 431 kts | 241° |
| 2026-04-30 05:56 | -34.52452 | 151.61653 | 38423 ft | 431 kts | 241° |
| 2026-04-30 05:57 | -34.55371 | 151.55299 | 38420 ft | 431 kts | 241° |
| 2026-04-30 05:57 | -34.58266 | 151.48986 | 38420 ft | 431 kts | 241° |
| 2026-04-30 05:58 | -34.61179 | 151.42621 | 38418 ft | 431 kts | 241° |
| 2026-04-30 05:58 | -34.64085 | 151.36261 | 38422 ft | 431 kts | 241° |
| 2026-04-30 05:59 | -34.66994 | 151.29883 | 38415 ft | 431 kts | 241° |
| 2026-04-30 05:59 | -34.69893 | 151.23514 | 38421 ft | 431 kts | 241° |
| 2026-04-30 06:00 | -34.72787 | 151.17143 | 38412 ft | 431 kts | 241° |
| 2026-04-30 06:00 | -34.75663 | 151.10803 | 38415 ft | 430 kts | 241° |
| 2026-04-30 06:01 | -34.78554 | 151.04415 | 38411 ft | 430 kts | 241° |
| 2026-04-30 06:01 | -34.81441 | 150.98026 | 38412 ft | 430 kts | 241° |
| 2026-04-30 06:02 | -34.84321 | 150.91640 | 38415 ft | 430 kts | 242° |
| 2026-04-30 06:02 | -34.87199 | 150.85247 | 38411 ft | 430 kts | 242° |
| 2026-04-30 06:03 | -34.90053 | 150.78895 | 38409 ft | 430 kts | 242° |
| 2026-04-30 06:03 | -34.92922 | 150.72498 | 38410 ft | 430 kts | 242° |
| 2026-04-30 06:04 | -34.95332 | 150.67116 | 38409 ft | 430 kts | 242° |
| 2026-04-30 06:05 | -34.99629 | 150.57497 | 38404 ft | 430 kts | 242° |
| 2026-04-30 06:05 | -35.02469 | 150.51125 | 38407 ft | 430 kts | 242° |
| 2026-04-30 06:06 | -35.05324 | 150.44707 | 38406 ft | 430 kts | 242° |
| 2026-04-30 06:06 | -35.08176 | 150.38285 | 38407 ft | 430 kts | 242° |
| 2026-04-30 06:07 | -35.11022 | 150.31863 | 38402 ft | 430 kts | 242° |
| 2026-04-30 06:07 | -35.13867 | 150.25430 | 38405 ft | 430 kts | 242° |
| 2026-04-30 06:08 | -35.16709 | 150.18993 | 38404 ft | 430 kts | 242° |
| 2026-04-30 06:08 | -35.19552 | 150.12543 | 38402 ft | 430 kts | 242° |
| 2026-04-30 06:09 | -35.22370 | 150.06137 | 38403 ft | 430 kts | 242° |
| 2026-04-30 06:09 | -35.25201 | 149.99688 | 38399 ft | 430 kts | 242° |
| 2026-04-30 06:10 | -35.28031 | 149.93229 | 38398 ft | 430 kts | 242° |
| 2026-04-30 06:10 | -35.30380 | 149.87858 | 38400 ft | 430 kts | 242° |
| 2026-04-30 06:11 | -35.33200 | 149.81399 | 38400 ft | 430 kts | 242° |
| 2026-04-30 06:11 | -35.36017 | 149.74935 | 38400 ft | 430 kts | 242° |
| 2026-04-30 06:12 | -35.38828 | 149.68473 | 38399 ft | 429 kts | 242° |
| 2026-04-30 06:12 | -35.41634 | 149.62008 | 38393 ft | 429 kts | 243° |
| 2026-04-30 06:13 | -35.44437 | 149.55539 | 38397 ft | 429 kts | 243° |
| 2026-04-30 06:13 | -35.47234 | 149.49072 | 38397 ft | 429 kts | 243° |
| 2026-04-30 06:14 | -35.50031 | 149.42590 | 38400 ft | 429 kts | 243° |
| 2026-04-30 06:14 | -35.52804 | 149.36153 | 38400 ft | 429 kts | 243° |
| 2026-04-30 06:15 | -35.55592 | 149.29670 | 38400 ft | 429 kts | 243° |
| 2026-04-30 06:15 | -35.58376 | 149.23182 | 38399 ft | 429 kts | 243° |
| 2026-04-30 06:16 | -35.61154 | 149.16696 | 38401 ft | 429 kts | 243° |
| 2026-04-30 06:16 | -35.63934 | 149.10193 | 38404 ft | 429 kts | 243° |
| 2026-04-30 06:17 | -35.66710 | 149.03687 | 38402 ft | 429 kts | 243° |
| 2026-04-30 06:17 | -35.69478 | 148.97186 | 38404 ft | 429 kts | 243° |
| 2026-04-30 06:18 | -35.72228 | 148.90713 | 38410 ft | 429 kts | 243° |
| 2026-04-30 06:18 | -35.74991 | 148.84199 | 38413 ft | 429 kts | 243° |
| 2026-04-30 06:19 | -35.77166 | 148.79062 | 38413 ft | 429 kts | 243° |
| 2026-04-30 06:19 | -35.79921 | 148.72542 | 38411 ft | 429 kts | 243° |
| 2026-04-30 06:20 | -35.82672 | 148.66024 | 38413 ft | 428 kts | 243° |
| 2026-04-30 06:20 | -35.85419 | 148.59507 | 38408 ft | 428 kts | 244° |
| 2026-04-30 06:21 | -35.88209 | 148.53012 | 38408 ft | 429 kts | 239° |
| 2026-04-30 06:21 | -35.91577 | 148.46931 | 38408 ft | 429 kts | 236° |
| 2026-04-30 06:22 | -35.94993 | 148.40893 | 38405 ft | 428 kts | 237° |
| 2026-04-30 06:22 | -35.98392 | 148.34853 | 38398 ft | 428 kts | 237° |
| 2026-04-30 06:23 | -36.01782 | 148.28809 | 38389 ft | 428 kts | 237° |
| 2026-04-30 06:23 | -36.05146 | 148.22803 | 38395 ft | 428 kts | 237° |
| 2026-04-30 06:24 | -36.08529 | 148.16752 | 38387 ft | 428 kts | 237° |
| 2026-04-30 06:24 | -36.11918 | 148.10680 | 38389 ft | 428 kts | 237° |
| 2026-04-30 06:25 | -36.15307 | 148.04619 | 38382 ft | 428 kts | 237° |
| 2026-04-30 06:25 | -36.18692 | 147.98563 | 38378 ft | 428 kts | 237° |
| 2026-04-30 06:26 | -36.22049 | 147.92544 | 38375 ft | 427 kts | 237° |
| 2026-04-30 06:26 | -36.25425 | 147.86479 | 38373 ft | 427 kts | 237° |
| 2026-04-30 06:27 | -36.28797 | 147.80410 | 38372 ft | 427 kts | 237° |
| 2026-04-30 06:27 | -36.32160 | 147.74348 | 38365 ft | 427 kts | 237° |
| 2026-04-30 06:28 | -36.35516 | 147.68279 | 38372 ft | 426 kts | 238° |
| 2026-04-30 06:28 | -36.38867 | 147.62198 | 38372 ft | 426 kts | 238° |
| 2026-04-30 06:29 | -36.42215 | 147.56115 | 38371 ft | 426 kts | 238° |
| 2026-04-30 06:29 | -36.45538 | 147.50064 | 38370 ft | 427 kts | 238° |
| 2026-04-30 06:30 | -36.48880 | 147.43970 | 38372 ft | 427 kts | 238° |
| 2026-04-30 06:30 | -36.52225 | 147.37862 | 38370 ft | 427 kts | 238° |
| 2026-04-30 06:31 | -36.55565 | 147.31751 | 38371 ft | 427 kts | 238° |
| 2026-04-30 06:31 | -36.58898 | 147.25642 | 38188 ft | 427 kts | 238° |
| 2026-04-30 06:31 | -36.60569 | 147.22574 | 37923 ft | 427 kts | 238° |
| 2026-04-30 06:32 | -36.62236 | 147.19511 | 37656 ft | 429 kts | 238° |
| 2026-04-30 06:32 | -36.63911 | 147.16431 | 37394 ft | 430 kts | 238° |
| 2026-04-30 06:32 | -36.65592 | 147.13335 | 37130 ft | 432 kts | 238° |
| 2026-04-30 06:32 | -36.67276 | 147.10233 | 36873 ft | 433 kts | 238° |
| 2026-04-30 06:33 | -36.68942 | 147.07159 | 36621 ft | 434 kts | 238° |
| 2026-04-30 06:33 | -36.70635 | 147.04036 | 36365 ft | 435 kts | 238° |
| 2026-04-30 06:33 | -36.72331 | 147.00901 | 36122 ft | 437 kts | 238° |
| 2026-04-30 06:33 | -36.74033 | 146.97753 | 35875 ft | 439 kts | 238° |
| 2026-04-30 06:34 | -36.75740 | 146.94593 | 35626 ft | 440 kts | 238° |
| 2026-04-30 06:34 | -36.77448 | 146.91430 | 35385 ft | 441 kts | 238° |
| 2026-04-30 06:34 | -36.79164 | 146.88247 | 35140 ft | 442 kts | 238° |
| 2026-04-30 06:34 | -36.80883 | 146.85056 | 34903 ft | 444 kts | 238° |
| 2026-04-30 06:35 | -36.82608 | 146.81850 | 34667 ft | 444 kts | 238° |
| 2026-04-30 06:35 | -36.84333 | 146.78644 | 34434 ft | 445 kts | 238° |
| 2026-04-30 06:35 | -36.86060 | 146.75430 | 34173 ft | 446 kts | 238° |
| 2026-04-30 06:35 | -36.87791 | 146.72205 | 33909 ft | 447 kts | 239° |
| 2026-04-30 06:36 | -36.89525 | 146.68972 | 33480 ft | 449 kts | 239° |
| 2026-04-30 06:36 | -36.91269 | 146.65716 | 32565 ft | 451 kts | 239° |
| 2026-04-30 06:36 | -36.93014 | 146.62455 | 31807 ft | 451 kts | 239° |
| 2026-04-30 06:36 | -36.94754 | 146.59202 | 31295 ft | 448 kts | 239° |
| 2026-04-30 06:37 | -36.96478 | 146.55976 | 30730 ft | 445 kts | 239° |
| 2026-04-30 06:37 | -36.98196 | 146.52759 | 30080 ft | 443 kts | 239° |
| 2026-04-30 06:37 | -36.99895 | 146.49573 | 29580 ft | 437 kts | 240° |
| 2026-04-30 06:37 | -37.01551 | 146.46463 | 29041 ft | 432 kts | 240° |
| 2026-04-30 06:38 | -37.03207 | 146.43351 | 28505 ft | 428 kts | 240° |
| 2026-04-30 06:38 | -37.04848 | 146.40263 | 27978 ft | 424 kts | 240° |
| 2026-04-30 06:38 | -37.06472 | 146.37204 | 27444 ft | 420 kts | 240° |
| 2026-04-30 06:38 | -37.08082 | 146.34169 | 26926 ft | 416 kts | 240° |
| 2026-04-30 06:39 | -37.09677 | 146.31161 | 26385 ft | 413 kts | 240° |
| 2026-04-30 06:39 | -37.11261 | 146.28171 | 25870 ft | 410 kts | 240° |
| 2026-04-30 06:39 | -37.12833 | 146.25199 | 25347 ft | 408 kts | 240° |
| 2026-04-30 06:39 | -37.14393 | 146.22248 | 24828 ft | 405 kts | 240° |
| 2026-04-30 06:40 | -37.15948 | 146.19304 | 24298 ft | 403 kts | 240° |
| 2026-04-30 06:40 | -37.17490 | 146.16381 | 23733 ft | 402 kts | 240° |
| 2026-04-30 06:40 | -37.19022 | 146.13476 | 23225 ft | 397 kts | 240° |
| 2026-04-30 06:40 | -37.20518 | 146.10637 | 22714 ft | 393 kts | 240° |
| 2026-04-30 06:41 | -37.22015 | 146.07794 | 22212 ft | 389 kts | 240° |
| 2026-04-30 06:41 | -37.23499 | 146.04973 | 21709 ft | 385 kts | 240° |
| 2026-04-30 06:41 | -37.24967 | 146.02181 | 21195 ft | 382 kts | 240° |
| 2026-04-30 06:41 | -37.26421 | 145.99413 | 20696 ft | 378 kts | 241° |
| 2026-04-30 06:42 | -37.27865 | 145.96660 | 20192 ft | 376 kts | 241° |
| 2026-04-30 06:42 | -37.29299 | 145.93925 | 19703 ft | 373 kts | 241° |
| 2026-04-30 06:42 | -37.30722 | 145.91205 | 19177 ft | 372 kts | 240° |
| 2026-04-30 06:42 | -37.32142 | 145.88497 | 18707 ft | 370 kts | 240° |
| 2026-04-30 06:43 | -37.33557 | 145.85801 | 18159 ft | 368 kts | 240° |
| 2026-04-30 06:43 | -37.34957 | 145.83134 | 17684 ft | 364 kts | 240° |
| 2026-04-30 06:43 | -37.36348 | 145.80485 | 17198 ft | 361 kts | 240° |
| 2026-04-30 06:43 | -37.37725 | 145.77859 | 16710 ft | 359 kts | 240° |
| 2026-04-30 06:44 | -37.39092 | 145.75249 | 16236 ft | 356 kts | 240° |
| 2026-04-30 06:44 | -37.40438 | 145.72673 | 15750 ft | 347 kts | 240° |
| 2026-04-30 06:44 | -37.41761 | 145.70140 | 14878 ft | 349 kts | 240° |
| 2026-04-30 06:44 | -37.43099 | 145.67565 | 13974 ft | 353 kts | 240° |
| 2026-04-30 06:45 | -37.44438 | 145.64994 | 13196 ft | 349 kts | 239° |
| 2026-04-30 06:45 | -37.45771 | 145.62466 | 12461 ft | 345 kts | 238° |
| 2026-04-30 06:45 | -37.47166 | 145.60030 | 11749 ft | 341 kts | 236° |
| 2026-04-30 06:45 | -37.48582 | 145.57647 | 11053 ft | 338 kts | 236° |
| 2026-04-30 06:46 | -37.49983 | 145.55290 | 10361 ft | 334 kts | 236° |
| 2026-04-30 06:46 | -37.51320 | 145.53027 | 10068 ft | 317 kts | 236° |
| 2026-04-30 06:46 | -37.52593 | 145.50858 | 9880 ft | 299 kts | 237° |
| 2026-04-30 06:46 | -37.53799 | 145.48792 | 9641 ft | 287 kts | 237° |
| 2026-04-30 06:47 | -37.54968 | 145.46776 | 9390 ft | 282 kts | 237° |
| 2026-04-30 06:47 | -37.56131 | 145.44762 | 9265 ft | 288 kts | 237° |
| 2026-04-30 06:47 | -37.57311 | 145.42720 | 9135 ft | 287 kts | 237° |
| 2026-04-30 06:47 | -37.58484 | 145.40694 | 9005 ft | 285 kts | 237° |
| 2026-04-30 06:48 | -37.59651 | 145.38679 | 8761 ft | 285 kts | 237° |
| 2026-04-30 06:48 | -37.60817 | 145.36668 | 8430 ft | 283 kts | 237° |
| 2026-04-30 06:48 | -37.61978 | 145.34656 | 8027 ft | 283 kts | 238° |
| 2026-04-30 06:48 | -37.63134 | 145.32654 | 7636 ft | 282 kts | 238° |
| 2026-04-30 06:49 | -37.64285 | 145.30659 | 7308 ft | 279 kts | 238° |
| 2026-04-30 06:49 | -37.65427 | 145.28680 | 6888 ft | 280 kts | 238° |
| 2026-04-30 06:49 | -37.66570 | 145.26698 | 6563 ft | 278 kts | 238° |
| 2026-04-30 06:49 | -37.67698 | 145.24737 | 6401 ft | 277 kts | 238° |
| 2026-04-30 06:50 | -37.68837 | 145.22752 | 6280 ft | 280 kts | 238° |
| 2026-04-30 06:50 | -37.69976 | 145.20775 | 6159 ft | 277 kts | 238° |
| 2026-04-30 06:50 | -37.71115 | 145.18799 | 6024 ft | 277 kts | 238° |
| 2026-04-30 06:50 | -37.72251 | 145.16830 | 5898 ft | 277 kts | 238° |
| 2026-04-30 06:51 | -37.73383 | 145.14860 | 5768 ft | 277 kts | 238° |
| 2026-04-30 06:51 | -37.74515 | 145.12887 | 5552 ft | 279 kts | 238° |
| 2026-04-30 06:51 | -37.75654 | 145.10899 | 5263 ft | 276 kts | 238° |
| 2026-04-30 06:51 | -37.76741 | 145.09011 | 5132 ft | 261 kts | 238° |
| 2026-04-30 06:52 | -37.77778 | 145.07211 | 4978 ft | 245 kts | 238° |
| 2026-04-30 06:52 | -37.78766 | 145.05491 | 4610 ft | 241 kts | 238° |
| 2026-04-30 06:52 | -37.79744 | 145.03774 | 4192 ft | 239 kts | 238° |
| 2026-04-30 06:52 | -37.80712 | 145.02067 | 4029 ft | 241 kts | 240° |
| 2026-04-30 06:53 | -37.81448 | 145.00240 | 3908 ft | 224 kts | 256° |
| 2026-04-30 06:53 | -37.81816 | 144.98380 | 3795 ft | 215 kts | 263° |
| 2026-04-30 06:53 | -37.82116 | 144.96567 | 3621 ft | 208 kts | 262° |
| 2026-04-30 06:53 | -37.82429 | 144.94766 | 3188 ft | 211 kts | 262° |
| 2026-04-30 06:54 | -37.82684 | 144.92916 | 2742 ft | 214 kts | 266° |
| 2026-04-30 06:54 | -37.82908 | 144.91090 | 2522 ft | 206 kts | 266° |
| 2026-04-30 06:54 | -37.83122 | 144.89358 | 2504 ft | 189 kts | 268° |
| 2026-04-30 06:54 | -37.82950 | 144.87885 | 2489 ft | 156 kts | 302° |
| 2026-04-30 06:55 | -37.82307 | 144.86939 | 2487 ft | 138 kts | 330° |
| 2026-04-30 06:55 | -37.81403 | 144.86498 | 2486 ft | 138 kts | 354° |
| 2026-04-30 06:55 | -37.80459 | 144.86346 | 2495 ft | 138 kts | 354° |
| 2026-04-30 06:55 | -37.79498 | 144.86166 | 2463 ft | 141 kts | 353° |
| 2026-04-30 06:56 | -37.78544 | 144.85982 | 2275 ft | 136 kts | 353° |
| 2026-04-30 06:56 | -37.77612 | 144.85800 | 2108 ft | 139 kts | 353° |
| 2026-04-30 06:56 | -37.76653 | 144.85617 | 1911 ft | 138 kts | 353° |
| 2026-04-30 06:56 | -37.75722 | 144.85439 | 1697 ft | 137 kts | 353° |
| 2026-04-30 06:57 | -37.74786 | 144.85263 | 1505 ft | 139 kts | 353° |
| 2026-04-30 06:57 | -37.73819 | 144.85085 | 1333 ft | 139 kts | 353° |
| 2026-04-30 06:57 | -37.72871 | 144.84906 | 1161 ft | 139 kts | 353° |
| 2026-04-30 06:57 | -37.71898 | 144.84713 | 987 ft | 141 kts | 353° |
| 2026-04-30 06:58 | -37.70934 | 144.84520 | 799 ft | 141 kts | 352° |
| 2026-04-30 06:58 | -37.69976 | 144.84314 | 612 ft | 138 kts | 357° |
| 2026-04-30 06:58 | -37.69010 | 144.84164 | 484 ft | 141 kts | 355° |
| 2026-04-30 06:58 | -37.68052 | 144.83991 | 367 ft | 133 kts | 355° |
| 2026-04-30 06:59 | -37.67483 | 144.83894 | 377 ft | 108 kts | 352° |
| 2026-04-30 06:59 | -37.66954 | 144.83850 | 395 ft | 46 kts | 21° |
| 2026-04-30 06:59 | -37.66757 | 144.83963 | 395 ft | 23 kts | 43° |
| 2026-04-30 06:59 | -37.66712 | 144.84118 | 402 ft | 12 kts | 82° |
| 2026-04-30 07:00 | -37.66752 | 144.84182 | 401 ft | 12 kts | 155° |
| 2026-04-30 07:00 | -37.66881 | 144.84210 | 397 ft | 25 kts | 172° |
| 2026-04-30 07:00 | -37.67068 | 144.84245 | 390 ft | 24 kts | 172° |
| 2026-04-30 07:00 | -37.67198 | 144.84331 | 386 ft | 22 kts | 97° |
| 2026-04-30 07:01 | -37.67184 | 144.84508 | 390 ft | 19 kts | 81° |
| 2026-04-30 07:01 | -37.67175 | 144.84581 | 391 ft | 6 kts | 50° |
| 2026-04-30 07:01 | -37.67155 | 144.84589 | 392 ft | 0 kts | 1° |
| 2026-04-30 07:01 | -37.67153 | 144.84589 | 392 ft | 1 kts | 355° |
| 2026-04-30 07:02 | -37.67139 | 144.84587 | 393 ft | 2 kts | 354° |
| 2026-04-30 07:02 | -37.67132 | 144.84586 | 393 ft | 0 kts | 354° |